Ever Ursula — 3FCB9 — position and weather

sailwx.info

Track history (hours):
 
Tides and Currents Weather Stations Pressure Air Temp Water Temp Dewpoint Dewpoint Depression Visibility Wind Speed Wind Dir Waves Ship Positions

Ever Ursula

Last reported at 2015-Feb-01 11:33 UTC. Time now 2015-Feb-01 11:44 UTC.
Position N 29°45' E 122°18'.

Type: Cargo ship. MMSI: 357737000.

Date/timePositionNaut miles runAvg speedWind from/ knotsBaromVisibWave heightAir tempDewpointWater temp
2015-Feb-01 11:33N 29°45' E 122°18'1211.7
2015-Feb-01 10:33N 29°54' E 122°10'6 5.9
2015-Feb-01 09:32N 29°53' E 122°03'0 0.0
2015-Feb-01 08:33N 29°53' E 122°03'0 0.0
2015-Feb-01 07:33N 29°53' E 122°03'0 0.0
2015-Feb-01 06:31N 29°53' E 122°03'0 0.0
2015-Feb-01 05:33N 29°53' E 122°03'0 0.0
2015-Feb-01 04:33N 29°53' E 122°03'0 0.0
2015-Feb-01 03:33N 29°53' E 122°03'0 0.1
2015-Feb-01 02:33N 29°53' E 122°03'0 0.1
2015-Feb-01 01:32N 29°53' E 122°03'0 0.0
2015-Feb-01 00:33N 29°53' E 122°03'0 0.0
2015-Jan-31 23:33N 29°53' E 122°03'0 0.0
2015-Jan-31 22:32N 29°53' E 122°03'0 0.0
2015-Jan-31 21:33N 29°53' E 122°03'0 0.0
2015-Jan-31 20:33N 29°53' E 122°03'0 0.0
2015-Jan-31 19:33N 29°53' E 122°03'0 0.0
2015-Jan-31 18:27N 29°53' E 122°03'0 0.0
2015-Jan-31 17:33N 29°53' E 122°03'0 0.0
2015-Jan-31 16:33N 29°53' E 122°03'0 0.0
2015-Jan-31 15:33N 29°53' E 122°03'0 0.0
2015-Jan-31 14:32N 29°53' E 122°03'0 0.0
2015-Jan-31 13:33N 29°53' E 122°03'0 0.1
2015-Jan-31 12:33N 29°53' E 122°03'0 0.1
2015-Jan-31 11:34N 29°53' E 122°03'0 0.0
2015-Jan-31 10:33N 29°53' E 122°03'0 0.0
2015-Jan-31 09:31N 29°53' E 122°03'2 2.5
2015-Jan-31 08:34N 29°55' E 122°05'1010.2
2015-Jan-31 07:33N 29°49' E 122°14'1010.4
2015-Jan-31 06:33N 29°44' E 122°25'1 0.5
2015-Jan-31 05:33N 29°44' E 122°26'0 0.0
2015-Jan-31 02:09N 29°44' E 122°26'0 0.2
2015-Jan-31 01:34N 29°45' E 122°26'7 7.2
2015-Jan-31 00:34N 29°43' E 122°34'1110.6
2015-Jan-30 23:33N 29°47' E 122°45'45110.4
2015-Jan-29 04:09N 35°02' E 129°07'4 7.0
2015-Jan-29 03:33N 35°06' E 129°05'0 0.3
2015-Jan-29 02:32N 35°06' E 129°05'0 0.0
2015-Jan-29 00:33N 35°06' E 129°05'0 0.1
2015-Jan-28 23:33N 35°06' E 129°05'6 5.7
2015-Jan-28 22:32N 35°02' E 129°10'41515.4
2015-Jan-27 19:33N 35°56' E 120°45'1817.7
2015-Jan-27 18:33N 36°00' E 120°24'9 8.6
2015-Jan-27 17:31N 36°01' E 120°13'0 0.1
2015-Jan-27 16:33N 36°01' E 120°13'0 0.0
2015-Jan-27 15:33N 36°01' E 120°13'0 0.0
2015-Jan-27 14:33N 36°01' E 120°13'0 0.0
2015-Jan-27 13:33N 36°01' E 120°13'0 0.1
2015-Jan-27 12:33N 36°01' E 120°13'0 0.0
2015-Jan-27 11:33N 36°01' E 120°13'0 0.0
2015-Jan-27 10:32N 36°01' E 120°13'0 0.0
2015-Jan-27 09:20N 36°01' E 120°13'0 0.0
2015-Jan-27 08:33N 36°01' E 120°13'0 0.0
2015-Jan-27 07:33N 36°01' E 120°13'0 0.0
2015-Jan-27 06:33N 36°01' E 120°13'0 0.0
2015-Jan-27 05:33N 36°01' E 120°13'0 0.0
2015-Jan-27 03:33N 36°01' E 120°13'7 7.3
2015-Jan-27 02:33N 36°01' E 120°22'17412.4
2015-Jan-26 12:34N 38°28' E 122°18'2119.3
2015-Jan-26 11:28N 38°46' E 122°03'1314.6
2015-Jan-26 10:33N 38°58' E 121°57'4 0.2
2015-Jan-25 15:29N 38°54' E 121°56'1212.4
2015-Jan-25 14:33N 38°43' E 121°54'1313.4
2015-Jan-25 13:34N 38°30' E 121°48'1514.6
2015-Jan-25 12:33N 38°29' E 121°29'14814.6
2015-Jan-25 02:23N 38°50' E 118°21'1315.5
2015-Jan-25 01:33N 38°55' E 118°06'1414.1
2015-Jan-25 00:34N 38°58' E 117°48'2 1.9
2015-Jan-24 23:33N 38°60' E 117°47'0 0.0
2015-Jan-24 22:32N 38°60' E 117°47'0 0.0
2015-Jan-24 21:33N 38°60' E 117°47'0 0.0
2015-Jan-24 20:29N 38°60' E 117°47'0 0.0
2015-Jan-24 19:33N 38°60' E 117°47'0 0.0
2015-Jan-24 18:33N 38°60' E 117°47'0 0.0
2015-Jan-24 17:33N 38°60' E 117°47'0 0.0
2015-Jan-24 16:33N 38°60' E 117°47'0 0.0
2015-Jan-24 15:33N 38°60' E 117°47'0 0.0
2015-Jan-24 14:29N 38°60' E 117°47'0 0.0
2015-Jan-24 13:33N 38°60' E 117°47'0 0.0
2015-Jan-24 12:27N 38°60' E 117°47'0 0.1
2015-Jan-24 11:33N 38°60' E 117°47'0 0.0
2015-Jan-24 10:29N 38°60' E 117°47'0 0.0
2015-Jan-24 09:34N 38°60' E 117°47'0 0.0
2015-Jan-24 08:33N 38°60' E 117°47'0 0.0
2015-Jan-24 07:33N 38°60' E 117°47'0 0.0
2015-Jan-24 06:33N 38°60' E 117°47'0 0.0
2015-Jan-24 05:33N 38°60' E 117°47'0 0.0
2015-Jan-24 04:33N 38°60' E 117°47'0 0.0
2015-Jan-24 03:33N 38°60' E 117°47'0 0.3
2015-Jan-24 02:33N 38°60' E 117°47'1110.7
2015-Jan-24 01:33N 38°56' E 118°00'5 5.5
2015-Jan-24 00:33N 38°55' E 118°07'1211.6
2015-Jan-23 23:32N 38°51' E 118°21'144 4.5
2015-Jan-22 15:20N 38°24' E 121°22'1114.2
2015-Jan-22 14:33N 38°18' E 121°35'  
Track history (hours):
 
Tides and Currents Weather Stations Pressure Air Temp Water Temp Dewpoint Dewpoint Depression Visibility Wind Speed Wind Dir Waves Ship Positions

Ever Ursula

Last reported at 2015-Feb-01 11:33 UTC. Time now 2015-Feb-01 11:44 UTC.
Position N 29°45' E 122°18'.

Type: Cargo ship. MMSI: 357737000.

Date/timePositionNaut miles runAvg speedWind from/ knotsBaromVisibWave heightAir tempDewpointWater temp
2015-Feb-01 11:33N 29°45' E 122°18'1211.7
2015-Feb-01 10:33N 29°54' E 122°10'6 5.9
2015-Feb-01 09:32N 29°53' E 122°03'0 0.0
2015-Feb-01 08:33N 29°53' E 122°03'0 0.0
2015-Feb-01 07:33N 29°53' E 122°03'0 0.0
2015-Feb-01 06:31N 29°53' E 122°03'0 0.0
2015-Feb-01 05:33N 29°53' E 122°03'0 0.0
2015-Feb-01 04:33N 29°53' E 122°03'0 0.0
2015-Feb-01 03:33N 29°53' E 122°03'0 0.1
2015-Feb-01 02:33N 29°53' E 122°03'0 0.1
2015-Feb-01 01:32N 29°53' E 122°03'0 0.0
2015-Feb-01 00:33N 29°53' E 122°03'0 0.0
2015-Jan-31 23:33N 29°53' E 122°03'0 0.0
2015-Jan-31 22:32N 29°53' E 122°03'0 0.0
2015-Jan-31 21:33N 29°53' E 122°03'0 0.0
2015-Jan-31 20:33N 29°53' E 122°03'0 0.0
2015-Jan-31 19:33N 29°53' E 122°03'0 0.0
2015-Jan-31 18:27N 29°53' E 122°03'0 0.0
2015-Jan-31 17:33N 29°53' E 122°03'0 0.0
2015-Jan-31 16:33N 29°53' E 122°03'0 0.0
2015-Jan-31 15:33N 29°53' E 122°03'0 0.0
2015-Jan-31 14:32N 29°53' E 122°03'0 0.0
2015-Jan-31 13:33N 29°53' E 122°03'0 0.1
2015-Jan-31 12:33N 29°53' E 122°03'0 0.1
2015-Jan-31 11:34N 29°53' E 122°03'0 0.0
2015-Jan-31 10:33N 29°53' E 122°03'0 0.0
2015-Jan-31 09:31N 29°53' E 122°03'2 2.5
2015-Jan-31 08:34N 29°55' E 122°05'1010.2
2015-Jan-31 07:33N 29°49' E 122°14'1010.4
2015-Jan-31 06:33N 29°44' E 122°25'1 0.5
2015-Jan-31 05:33N 29°44' E 122°26'0 0.0
2015-Jan-31 02:09N 29°44' E 122°26'0 0.2
2015-Jan-31 01:34N 29°45' E 122°26'7 7.2
2015-Jan-31 00:34N 29°43' E 122°34'1110.6
2015-Jan-30 23:33N 29°47' E 122°45'45110.4
2015-Jan-29 04:09N 35°02' E 129°07'4 7.0
2015-Jan-29 03:33N 35°06' E 129°05'0 0.3
2015-Jan-29 02:32N 35°06' E 129°05'0 0.0
2015-Jan-29 00:33N 35°06' E 129°05'0 0.1
2015-Jan-28 23:33N 35°06' E 129°05'6 5.7
2015-Jan-28 22:32N 35°02' E 129°10'41515.4
2015-Jan-27 19:33N 35°56' E 120°45'1817.7
2015-Jan-27 18:33N 36°00' E 120°24'9 8.6
2015-Jan-27 17:31N 36°01' E 120°13'0 0.1
2015-Jan-27 16:33N 36°01' E 120°13'0 0.0
2015-Jan-27 15:33N 36°01' E 120°13'0 0.0
2015-Jan-27 14:33N 36°01' E 120°13'0 0.0
2015-Jan-27 13:33N 36°01' E 120°13'0 0.1
2015-Jan-27 12:33N 36°01' E 120°13'0 0.0
2015-Jan-27 11:33N 36°01' E 120°13'0 0.0
2015-Jan-27 10:32N 36°01' E 120°13'0 0.0
2015-Jan-27 09:20N 36°01' E 120°13'0 0.0
2015-Jan-27 08:33N 36°01' E 120°13'0 0.0
2015-Jan-27 07:33N 36°01' E 120°13'0 0.0
2015-Jan-27 06:33N 36°01' E 120°13'0 0.0
2015-Jan-27 05:33N 36°01' E 120°13'0 0.0
2015-Jan-27 03:33N 36°01' E 120°13'7 7.3
2015-Jan-27 02:33N 36°01' E 120°22'17412.4
2015-Jan-26 12:34N 38°28' E 122°18'2119.3
2015-Jan-26 11:28N 38°46' E 122°03'1314.6
2015-Jan-26 10:33N 38°58' E 121°57'4 0.2
2015-Jan-25 15:29N 38°54' E 121°56'1212.4
2015-Jan-25 14:33N 38°43' E 121°54'1313.4
2015-Jan-25 13:34N 38°30' E 121°48'1514.6
2015-Jan-25 12:33N 38°29' E 121°29'14814.6
2015-Jan-25 02:23N 38°50' E 118°21'1315.5
2015-Jan-25 01:33N 38°55' E 118°06'1414.1
2015-Jan-25 00:34N 38°58' E 117°48'2 1.9
2015-Jan-24 23:33N 38°60' E 117°47'0 0.0
2015-Jan-24 22:32N 38°60' E 117°47'0 0.0
2015-Jan-24 21:33N 38°60' E 117°47'0 0.0
2015-Jan-24 20:29N 38°60' E 117°47'0 0.0
2015-Jan-24 19:33N 38°60' E 117°47'0 0.0
2015-Jan-24 18:33N 38°60' E 117°47'0 0.0
2015-Jan-24 17:33N 38°60' E 117°47'0 0.0
2015-Jan-24 16:33N 38°60' E 117°47'0 0.0
2015-Jan-24 15:33N 38°60' E 117°47'0 0.0
2015-Jan-24 14:29N 38°60' E 117°47'0 0.0
2015-Jan-24 13:33N 38°60' E 117°47'0 0.0
2015-Jan-24 12:27N 38°60' E 117°47'0 0.1
2015-Jan-24 11:33N 38°60' E 117°47'0 0.0
2015-Jan-24 10:29N 38°60' E 117°47'0 0.0
2015-Jan-24 09:34N 38°60' E 117°47'0 0.0
2015-Jan-24 08:33N 38°60' E 117°47'0 0.0
2015-Jan-24 07:33N 38°60' E 117°47'0 0.0
2015-Jan-24 06:33N 38°60' E 117°47'0 0.0
2015-Jan-24 05:33N 38°60' E 117°47'0 0.0
2015-Jan-24 04:33N 38°60' E 117°47'0 0.0
2015-Jan-24 03:33N 38°60' E 117°47'0 0.3
2015-Jan-24 02:33N 38°60' E 117°47'1110.7
2015-Jan-24 01:33N 38°56' E 118°00'5 5.5
2015-Jan-24 00:33N 38°55' E 118°07'1211.6
2015-Jan-23 23:32N 38°51' E 118°21'144 4.5
2015-Jan-22 15:20N 38°24' E 121°22'1114.2
2015-Jan-22 14:33N 38°18' E 121°35'  

Dump ship's entire track history